Time;durP1;ratioP1;P1;durP2;ratioP2;P2;SDS_P1;SDS_P2;PMS_P1;PMS_P2;Temp;Humidity;BMP_temperature;BMP_pressure;BME280_temperature;BME280_humidity;BME280_pressure;Samples;Min_cycle;Max_cycle;Signal;HPM_P1;HPM_P2
2021/05/30 00:00:11;;;;;;;8.07;6.00;;;15.20;82.90;;;;;;5074748;28;20033;-85
2021/05/30 00:02:37;;;;;;;10.70;6.22;;;15.20;82.40;;;;;;5089142;28;20024;-85
2021/05/30 00:05:04;;;;;;;9.38;6.43;;;15.10;82.50;;;;;;5043868;28;20093;-85
2021/05/30 00:07:30;;;;;;;9.95;7.00;;;15.10;82.90;;;;;;5083443;28;20468;-85
2021/05/30 00:09:56;;;;;;;8.77;6.57;;;15.00;83.00;;;;;;5040153;28;20036;-87
2021/05/30 00:12:21;;;;;;;8.23;6.47;;;15.00;83.50;;;;;;5060076;28;20383;-85
2021/05/30 00:14:47;;;;;;;9.35;6.57;;;15.00;83.20;;;;;;5059253;28;20053;-86
2021/05/30 00:17:14;;;;;;;8.23;6.97;;;14.90;83.50;;;;;;5080954;28;20031;-85
2021/05/30 00:19:40;;;;;;;8.25;6.18;;;14.90;83.70;;;;;;5059834;28;20051;-85
2021/05/30 00:22:06;;;;;;;10.05;6.78;;;14.80;83.30;;;;;;5072388;28;20063;-85
2021/05/30 00:24:32;;;;;;;7.97;6.55;;;14.80;83.30;;;;;;5076860;28;20475;-84
2021/05/30 00:26:58;;;;;;;11.32;7.47;;;14.70;83.30;;;;;;5036713;28;20037;-87
2021/05/30 00:29:24;;;;;;;9.20;7.07;;;14.70;83.70;;;;;;5064197;28;20074;-85
2021/05/30 00:31:49;;;;;;;9.82;7.13;;;14.60;83.70;;;;;;5056538;28;20080;-85
2021/05/30 00:34:15;;;;;;;9.90;7.00;;;14.60;83.80;;;;;;5073442;28;20033;-85
2021/05/30 00:36:41;;;;;;;9.82;7.15;;;14.60;83.90;;;;;;5053072;28;20033;-84
2021/05/30 00:39:06;;;;;;;11.00;7.68;;;14.50;83.30;;;;;;5052716;28;20024;-85
2021/05/30 00:41:32;;;;;;;10.02;7.32;;;14.40;84.00;;;;;;5075797;28;20035;-84
2021/05/30 00:43:58;;;;;;;10.45;7.72;;;14.40;84.30;;;;;;5076144;28;20099;-85
2021/05/30 00:46:24;;;;;;;9.55;7.75;;;14.40;83.60;;;;;;5059304;28;20039;-84
2021/05/30 00:48:50;;;;;;;9.98;7.53;;;14.30;84.30;;;;;;5092855;28;20035;-84
2021/05/30 00:51:17;;;;;;;8.80;7.07;;;14.30;84.00;;;;;;5073059;28;20055;-85
2021/05/30 00:53:44;;;;;;;10.60;7.80;;;14.20;84.00;;;;;;5072784;28;20107;-84
2021/05/30 00:56:13;;;;;;;10.60;7.30;;;14.20;84.00;;;;;;5076082;28;20032;-85
2021/05/30 00:58:40;;;;;;;9.30;7.30;;;14.10;84.30;;;;;;5094779;28;20035;-84
2021/05/30 01:01:07;;;;;;;12.63;7.38;;;14.10;84.40;;;;;;5059108;28;20040;-85
2021/05/30 01:03:39;;;;;;;9.82;7.60;;;14.00;84.50;;;;;;5059949;28;20055;-85
2021/05/30 01:06:05;;;;;;;12.90;8.10;;;14.00;85.20;;;;;;5076183;28;20469;-85
2021/05/30 01:08:31;;;;;;;9.77;7.93;;;14.00;85.20;;;;;;5039041;28;20025;-85
2021/05/30 01:11:00;;;;;;;9.30;7.97;;;13.90;85.20;;;;;;5076408;28;20533;-85
2021/05/30 01:13:27;;;;;;;11.00;8.32;;;13.90;84.70;;;;;;5060776;28;20070;-85
2021/05/30 01:15:54;;;;;;;9.73;7.68;;;13.90;85.00;;;;;;5065866;28;20035;-85
2021/05/30 01:18:24;;;;;;;11.82;8.32;;;13.80;85.00;;;;;;5055746;28;20111;-85
2021/05/30 01:20:52;;;;;;;10.95;8.70;;;13.80;85.10;;;;;;5056163;28;20025;-85
2021/05/30 01:23:19;;;;;;;10.73;8.65;;;13.70;85.60;;;;;;5036098;28;20095;-85
2021/05/30 01:25:46;;;;;;;12.23;9.10;;;13.70;85.80;;;;;;5043760;28;20032;-84
2021/05/30 01:28:12;;;;;;;12.05;9.38;;;13.70;85.50;;;;;;5040961;28;20033;-85
2021/05/30 01:30:39;;;;;;;11.10;8.68;;;13.60;85.50;;;;;;5066296;28;20033;-85
2021/05/30 01:33:05;;;;;;;12.02;9.80;;;13.60;85.70;;;;;;5016128;28;20036;-85
2021/05/30 01:35:31;;;;;;;13.57;9.00;;;13.50;85.60;;;;;;5046825;28;20496;-85
2021/05/30 01:37:57;;;;;;;12.23;9.15;;;13.50;85.50;;;;;;5048572;28;20021;-86
2021/05/30 01:40:23;;;;;;;11.00;8.38;;;13.50;85.30;;;;;;5072696;28;20029;-85
2021/05/30 01:42:50;;;;;;;12.27;8.70;;;13.40;85.40;;;;;;5073892;28;20051;-85
2021/05/30 01:45:18;;;;;;;13.32;8.88;;;13.40;85.90;;;;;;5072155;28;20090;-85
2021/05/30 01:47:44;;;;;;;10.48;8.32;;;13.40;85.90;;;;;;5047888;28;20116;-86
2021/05/30 01:50:17;;;;;;;10.43;8.57;;;13.30;85.80;;;;;;5034576;28;20080;-86
2021/05/30 01:52:44;;;;;;;12.30;7.65;;;13.30;85.90;;;;;;5059052;28;20025;-85
2021/05/30 01:55:50;;;;;;;13.45;8.70;;;13.20;86.00;;;;;;5073881;28;20037;-84
2021/05/30 01:58:03;;;;;;;13.88;9.05;;;13.20;86.30;;;;;;5046164;28;20029;-85
2021/05/30 02:00:29;;;;;;;11.18;8.45;;;13.20;86.60;;;;;;5052408;28;20039;-85
2021/05/30 02:02:56;;;;;;;11.70;8.27;;;13.10;86.10;;;;;;5040577;28;20376;-84
2021/05/30 02:05:23;;;;;;;10.40;7.93;;;13.10;87.20;;;;;;5046201;28;20388;-84
2021/05/30 02:07:50;;;;;;;11.40;8.13;;;13.10;86.70;;;;;;5060752;28;20427;-86
2021/05/30 02:10:17;;;;;;;9.80;7.90;;;13.00;86.60;;;;;;5037958;28;20087;-85
2021/05/30 02:12:47;;;;;;;11.88;7.90;;;13.00;86.10;;;;;;5051032;28;20024;-85
2021/05/30 02:15:15;;;;;;;13.63;8.90;;;13.00;86.30;;;;;;5057838;28;20060;-85
2021/05/30 02:17:42;;;;;;;13.10;8.40;;;12.90;86.40;;;;;;5073858;28;20086;-85
2021/05/30 02:20:10;;;;;;;10.85;7.80;;;12.90;86.60;;;;;;5042498;28;20024;-85
2021/05/30 02:22:36;;;;;;;10.60;7.53;;;12.90;87.10;;;;;;5064237;28;20078;-85
2021/05/30 02:25:03;;;;;;;13.23;8.80;;;12.80;87.10;;;;;;5037152;28;20024;-85
2021/05/30 02:27:28;;;;;;;13.25;7.60;;;12.80;87.20;;;;;;5053217;28;20025;-85
2021/05/30 02:29:54;;;;;;;12.55;8.02;;;12.80;87.00;;;;;;5064470;28;20041;-86
2021/05/30 02:32:20;;;;;;;10.07;7.40;;;12.70;87.30;;;;;;5050749;28;20059;-84
2021/05/30 02:34:45;;;;;;;13.63;8.05;;;12.70;86.90;;;;;;5054347;28;20033;-85
2021/05/30 02:37:14;;;;;;;12.30;7.75;;;12.70;87.00;;;;;;5048627;28;20377;-85
2021/05/30 02:39:41;;;;;;;10.93;7.68;;;12.70;87.40;;;;;;5060063;28;20032;-85
2021/05/30 02:42:08;;;;;;;13.57;8.38;;;12.60;87.00;;;;;;5076555;28;20024;-86
2021/05/30 02:44:34;;;;;;;9.90;8.07;;;12.60;87.70;;;;;;5054744;28;20025;-85
2021/05/30 02:47:00;;;;;;;12.25;7.72;;;12.60;87.90;;;;;;5068939;28;20035;-85
2021/05/30 02:49:26;;;;;;;11.15;7.68;;;12.60;87.40;;;;;;5054848;28;20848;-85
2021/05/30 02:51:53;;;;;;;11.73;8.68;;;12.60;87.40;;;;;;5054559;28;20480;-86
2021/05/30 02:54:19;;;;;;;12.02;8.27;;;12.50;87.90;;;;;;5054394;28;20028;-84
2021/05/30 02:56:45;;;;;;;10.20;7.78;;;12.50;88.00;;;;;;5068206;28;20385;-85
2021/05/30 02:59:11;;;;;;;11.88;7.90;;;12.50;87.90;;;;;;5072571;28;20029;-85
2021/05/30 03:01:37;;;;;;;13.20;8.63;;;12.50;87.90;;;;;;5052020;28;20024;-85
2021/05/30 03:04:05;;;;;;;13.02;8.35;;;12.40;87.70;;;;;;5054578;28;20032;-85
2021/05/30 03:06:30;;;;;;;12.32;8.60;;;12.40;88.10;;;;;;5071928;28;20025;-86
2021/05/30 03:08:58;;;;;;;12.23;8.73;;;12.40;87.80;;;;;;5068556;28;20036;-85
2021/05/30 03:11:24;;;;;;;12.93;9.00;;;12.30;87.90;;;;;;5039336;28;20330;-84
2021/05/30 03:13:51;;;;;;;13.18;8.35;;;12.30;88.20;;;;;;5069591;28;20048;-84
2021/05/30 03:16:16;;;;;;;12.88;8.38;;;12.30;88.10;;;;;;5088858;28;20108;-85
2021/05/30 03:18:42;;;;;;;14.90;9.23;;;12.30;88.30;;;;;;5057655;28;20486;-85
2021/05/30 03:21:08;;;;;;;13.25;8.77;;;12.30;88.80;;;;;;5057325;28;20036;-85
2021/05/30 03:23:34;;;;;;;14.52;10.15;;;12.20;88.90;;;;;;5038352;28;20211;-85
2021/05/30 03:25:59;;;;;;;12.52;8.50;;;12.20;88.70;;;;;;5072252;28;20388;-85
2021/05/30 03:28:25;;;;;;;16.75;9.55;;;12.20;88.70;;;;;;5023567;28;20106;-85
2021/05/30 03:30:51;;;;;;;13.20;8.63;;;12.20;89.10;;;;;;5092437;28;20531;-85
2021/05/30 03:33:17;;;;;;;13.98;9.15;;;12.10;88.60;;;;;;5038915;28;20478;-85
2021/05/30 03:35:44;;;;;;;12.60;9.02;;;12.10;88.50;;;;;;5048146;28;20034;-85
2021/05/30 03:38:12;;;;;;;14.55;9.55;;;12.10;89.00;;;;;;5074588;28;20028;-86
2021/05/30 03:43:07;;;;;;;14.23;9.35;;;12.00;89.00;;;;;;5075010;28;20036;-85
2021/05/30 03:45:33;;;;;;;12.70;9.05;;;12.00;89.80;;;;;;5052899;28;20365;-85
2021/05/30 03:47:58;;;;;;;16.55;9.27;;;12.00;89.80;;;;;;5043267;28;20166;-85
2021/05/30 03:50:24;;;;;;;13.57;9.10;;;11.90;89.90;;;;;;5073150;28;20028;-84
2021/05/30 03:52:50;;;;;;;14.13;9.73;;;11.90;90.00;;;;;;5074254;28;20028;-85
2021/05/30 03:55:16;;;;;;;14.80;9.80;;;11.90;90.20;;;;;;5040480;28;20020;-85
2021/05/30 03:57:42;;;;;;;15.57;10.30;;;11.90;90.30;;;;;;5057362;28;20126;-85
2021/05/30 04:00:10;;;;;;;14.20;9.38;;;11.90;90.40;;;;;;5073909;28;20032;-85
2021/05/30 04:02:36;;;;;;;13.30;9.00;;;11.90;90.40;;;;;;5053451;28;20020;-85
2021/05/30 04:05:03;;;;;;;15.38;10.68;;;11.90;90.50;;;;;;5063707;28;20112;-85
2021/05/30 04:07:29;;;;;;;17.67;10.45;;;11.90;90.60;;;;;;5072051;28;20047;-85
2021/05/30 04:09:55;;;;;;;13.15;9.52;;;11.80;90.50;;;;;;5018206;28;20037;-85
2021/05/30 04:12:21;;;;;;;15.15;9.73;;;11.90;90.70;;;;;;5049030;28;20365;-85
2021/05/30 04:14:46;;;;;;;15.40;10.32;;;11.80;90.70;;;;;;5043849;28;20048;-84
2021/05/30 04:17:12;;;;;;;17.85;10.38;;;11.80;90.80;;;;;;5060824;28;20049;-85
2021/05/30 04:19:38;;;;;;;16.33;9.73;;;11.90;90.80;;;;;;5074368;28;20411;-85
2021/05/30 04:22:04;;;;;;;14.63;10.32;;;11.80;90.80;;;;;;5049420;28;20028;-86
2021/05/30 04:24:29;;;;;;;14.45;9.93;;;11.90;90.90;;;;;;5027165;28;20507;-86
2021/05/30 04:26:55;;;;;;;19.15;10.82;;;11.80;91.00;;;;;;5055714;28;20048;-87
2021/05/30 04:29:20;;;;;;;16.73;9.80;;;11.90;91.00;;;;;;5053262;28;20028;-85
2021/05/30 04:31:46;;;;;;;14.63;10.02;;;11.80;90.90;;;;;;5062700;28;20020;-86
2021/05/30 04:34:12;;;;;;;16.33;10.98;;;11.90;91.00;;;;;;5044112;28;20395;-85
2021/05/30 04:36:37;;;;;;;15.30;10.10;;;11.80;91.20;;;;;;5042589;28;20461;-86
2021/05/30 04:39:04;;;;;;;13.23;9.45;;;11.80;91.10;;;;;;5049057;28;20036;-85
2021/05/30 04:41:29;;;;;;;14.93;10.35;;;11.90;91.20;;;;;;5061459;28;20484;-85
2021/05/30 04:43:55;;;;;;;17.08;10.70;;;11.80;91.20;;;;;;5057424;28;20159;-85
2021/05/30 04:46:21;;;;;;;16.38;11.32;;;11.80;91.30;;;;;;5020542;28;20382;-85
2021/05/30 04:48:46;;;;;;;14.82;10.60;;;11.90;91.30;;;;;;5028379;28;20361;-84
2021/05/30 04:51:13;;;;;;;15.10;10.45;;;11.90;91.40;;;;;;5048838;28;20029;-85
2021/05/30 04:53:41;;;;;;;15.57;10.02;;;11.80;91.40;;;;;;5057178;28;20031;-84
2021/05/30 04:56:07;;;;;;;14.90;10.68;;;11.80;91.40;;;;;;5059909;28;20028;-84
2021/05/30 04:58:34;;;;;;;16.05;11.23;;;11.80;91.40;;;;;;5059471;28;20391;-85
2021/05/30 05:01:01;;;;;;;15.25;10.57;;;11.80;91.50;;;;;;5076406;28;20109;-84
2021/05/30 05:03:27;;;;;;;16.13;10.60;;;11.90;91.70;;;;;;5076356;28;20423;-84
2021/05/30 05:05:53;;;;;;;15.18;11.05;;;11.90;91.80;;;;;;5094221;28;20027;-85
2021/05/30 05:08:21;;;;;;;13.35;9.88;;;11.90;91.90;;;;;;5076233;28;20876;-84
2021/05/30 05:10:47;;;;;;;14.23;9.88;;;11.90;91.80;;;;;;5076538;28;20028;-86
2021/05/30 05:13:14;;;;;;;14.93;11.05;;;11.90;91.90;;;;;;5076112;28;20052;-84
2021/05/30 05:15:41;;;;;;;13.88;9.88;;;11.90;92.00;;;;;;5062210;28;20123;-84
2021/05/30 05:18:14;;;;;;;15.90;10.10;;;12.00;92.20;;;;;;5076478;28;20140;-85
2021/05/30 05:20:39;;;;;;;14.00;10.52;;;12.00;92.20;;;;;;5022838;28;20137;-85
2021/05/30 05:23:05;;;;;;;13.38;9.93;;;12.00;92.10;;;;;;5062442;28;20171;-85
2021/05/30 05:25:34;;;;;;;16.08;10.95;;;12.00;92.20;;;;;;5055001;28;20029;-84
2021/05/30 05:28:00;;;;;;;15.88;11.05;;;12.00;92.30;;;;;;5054900;28;20502;-85
2021/05/30 05:30:26;;;;;;;15.43;10.27;;;12.00;92.20;;;;;;5055887;28;20111;-85
2021/05/30 05:32:52;;;;;;;14.73;11.15;;;12.00;92.30;;;;;;5038454;28;20033;-86
2021/05/30 05:35:17;;;;;;;14.45;11.07;;;12.10;92.50;;;;;;5050051;28;20511;-87
2021/05/30 05:37:43;;;;;;;15.73;11.27;;;12.10;92.40;;;;;;5051288;28;20016;-85
2021/05/30 05:40:10;;;;;;;12.88;10.35;;;12.10;92.50;;;;;;5075595;28;20414;-85
2021/05/30 05:42:37;;;;;;;14.63;10.77;;;12.20;92.40;;;;;;5093281;28;20077;-85
2021/05/30 05:45:04;;;;;;;14.90;10.63;;;12.20;92.30;;;;;;5058904;28;20036;-86
2021/05/30 05:47:29;;;;;;;16.60;11.95;;;12.20;92.30;;;;;;5063389;28;20387;-86
2021/05/30 05:49:55;;;;;;;14.82;11.35;;;12.20;92.40;;;;;;5042303;28;20032;-85
2021/05/30 05:52:21;;;;;;;14.80;11.18;;;12.30;92.30;;;;;;5039127;28;20112;-86
2021/05/30 05:54:48;;;;;;;14.40;10.55;;;12.30;92.30;;;;;;5038833;28;20031;-85
2021/05/30 05:57:14;;;;;;;16.25;11.68;;;12.30;92.40;;;;;;5057760;28;20031;-85
2021/05/30 05:59:44;;;;;;;14.55;11.00;;;12.30;92.30;;;;;;5061485;28;20032;-85
2021/05/30 06:02:10;;;;;;;16.27;11.70;;;12.40;92.30;;;;;;5073232;28;20020;-85
2021/05/30 06:04:35;;;;;;;13.15;10.48;;;12.40;92.40;;;;;;5055881;28;20488;-85
2021/05/30 06:07:01;;;;;;;14.05;10.88;;;12.50;92.40;;;;;;5059380;28;20029;-85
2021/05/30 06:09:27;;;;;;;15.05;11.13;;;12.50;92.40;;;;;;5055396;28;20032;-85
2021/05/30 06:11:52;;;;;;;15.88;10.38;;;12.50;92.40;;;;;;5025596;28;20148;-85
2021/05/30 06:14:18;;;;;;;13.40;10.60;;;12.60;92.40;;;;;;5063069;28;20076;-85
2021/05/30 06:16:44;;;;;;;16.30;10.88;;;12.60;92.60;;;;;;5075169;28;20032;-85
2021/05/30 06:19:10;;;;;;;13.45;10.38;;;12.70;92.50;;;;;;5074910;28;20027;-85
2021/05/30 06:21:35;;;;;;;14.05;10.35;;;12.70;92.40;;;;;;5074881;28;20028;-86
2021/05/30 06:24:01;;;;;;;15.23;10.93;;;12.80;92.50;;;;;;5075117;28;20024;-86
2021/05/30 06:26:27;;;;;;;14.70;10.32;;;12.80;92.60;;;;;;5057996;28;20032;-86
2021/05/30 06:28:53;;;;;;;15.88;11.80;;;12.80;92.60;;;;;;5084077;28;20031;-86
2021/05/30 06:31:19;;;;;;;14.82;11.00;;;12.90;92.50;;;;;;5058195;28;20032;-86
2021/05/30 06:33:44;;;;;;;14.70;11.18;;;13.00;92.40;;;;;;5057479;28;20020;-86
2021/05/30 06:36:10;;;;;;;16.13;10.88;;;13.00;92.40;;;;;;5041844;28;20047;-86
2021/05/30 06:38:35;;;;;;;14.40;11.02;;;13.10;92.40;;;;;;5057946;28;20024;-86
2021/05/30 06:41:01;;;;;;;17.52;12.38;;;13.10;92.40;;;;;;5054563;28;20028;-85
2021/05/30 06:43:27;;;;;;;16.50;12.05;;;13.20;92.40;;;;;;5057689;28;20491;-85
2021/05/30 06:45:52;;;;;;;15.52;11.52;;;13.20;92.30;;;;;;5074637;28;20480;-86
2021/05/30 06:48:20;;;;;;;15.25;12.00;;;13.30;92.40;;;;;;5057755;28;20020;-86
2021/05/30 06:51:12;;;;;;;16.65;12.73;;;13.30;92.30;;;;;;5067212;28;20032;-86
2021/05/30 06:53:32;;;;;;;16.00;12.45;;;13.40;92.00;;;;;;5088237;28;20053;-85
2021/05/30 06:55:58;;;;;;;14.77;11.50;;;13.40;92.00;;;;;;5074349;28;20115;-86
2021/05/30 06:58:24;;;;;;;16.38;12.35;;;13.50;91.90;;;;;;5050979;28;20021;-86
2021/05/30 07:00:50;;;;;;;18.08;12.65;;;13.50;91.70;;;;;;5044083;28;20020;-86
2021/05/30 07:03:16;;;;;;;14.45;10.80;;;13.60;91.80;;;;;;5092928;28;20038;-85
2021/05/30 07:05:42;;;;;;;16.42;11.48;;;13.60;91.70;;;;;;5070891;28;20863;-86
2021/05/30 07:08:07;;;;;;;14.55;11.10;;;13.70;91.90;;;;;;5074584;28;20071;-85
2021/05/30 07:10:33;;;;;;;14.32;10.88;;;13.80;91.80;;;;;;5057395;28;20032;-85
2021/05/30 07:12:59;;;;;;;15.98;11.63;;;13.80;91.70;;;;;;5040832;28;20272;-85
2021/05/30 07:15:24;;;;;;;14.57;11.00;;;13.90;91.70;;;;;;5054195;28;20040;-86
2021/05/30 07:17:50;;;;;;;14.55;10.50;;;14.00;91.70;;;;;;5074671;28;20472;-85
2021/05/30 07:20:16;;;;;;;13.20;10.60;;;14.10;91.80;;;;;;5070377;28;20471;-85
2021/05/30 07:22:42;;;;;;;13.32;11.02;;;14.20;91.90;;;;;;5070629;28;20033;-85
2021/05/30 07:25:08;;;;;;;14.40;10.13;;;14.30;91.70;;;;;;5070068;28;20075;-86
2021/05/30 07:27:34;;;;;;;14.13;10.45;;;14.30;91.60;;;;;;5067601;28;20075;-85
2021/05/30 07:29:59;;;;;;;14.40;11.45;;;14.40;91.60;;;;;;5067654;28;20064;-85
2021/05/30 07:32:25;;;;;;;12.60;10.48;;;14.50;91.50;;;;;;5079854;28;20059;-86
2021/05/30 07:34:50;;;;;;;13.73;10.35;;;14.60;91.40;;;;;;5048944;28;20029;-85
2021/05/30 07:37:16;;;;;;;14.23;10.40;;;14.70;91.20;;;;;;5049041;28;20025;-85
2021/05/30 07:39:42;;;;;;;13.70;10.15;;;14.80;91.20;;;;;;5053458;28;20028;-87
2021/05/30 07:42:09;;;;;;;13.13;10.02;;;14.90;91.20;;;;;;5069559;28;20374;-87
2021/05/30 07:44:35;;;;;;;12.63;10.52;;;15.00;90.90;;;;;;5045744;28;20033;-87
2021/05/30 07:47:01;;;;;;;13.38;9.95;;;15.10;90.80;;;;;;5073469;28;20119;-86
2021/05/30 07:49:26;;;;;;;13.10;9.23;;;15.20;90.80;;;;;;5073173;28;20112;-88
2021/05/30 07:51:52;;;;;;;15.25;11.60;;;15.30;90.80;;;;;;5075228;28;20396;-86
2021/05/30 07:54:19;;;;;;;14.88;10.75;;;15.40;90.40;;;;;;5078016;28;20032;-86
2021/05/30 07:56:45;;;;;;;12.82;9.70;;;15.40;90.20;;;;;;5056770;28;20381;-86
2021/05/30 07:59:11;;;;;;;13.70;10.55;;;15.50;90.20;;;;;;5071993;28;20696;-86
2021/05/30 08:01:36;;;;;;;10.40;8.25;;;15.60;90.00;;;;;;5057193;28;20032;-87
2021/05/30 08:04:02;;;;;;;12.85;9.68;;;15.70;90.00;;;;;;5081283;28;20481;-88
2021/05/30 08:06:32;;;;;;;13.90;9.98;;;15.80;89.90;;;;;;5053043;28;20028;-86
2021/05/30 08:08:59;;;;;;;12.10;9.63;;;16.00;89.40;;;;;;5055004;28;20028;-86
2021/05/30 08:11:25;;;;;;;12.30;9.35;;;16.00;89.50;;;;;;5073134;28;20032;-86
2021/05/30 08:13:52;;;;;;;12.65;9.52;;;16.10;88.80;;;;;;5072981;28;20482;-85
2021/05/30 08:16:19;;;;;;;10.55;8.30;;;16.20;88.40;;;;;;5073850;28;20024;-86
2021/05/30 08:18:45;;;;;;;11.75;9.02;;;16.30;88.00;;;;;;5074430;28;20021;-85
2021/05/30 08:21:11;;;;;;;13.48;9.45;;;16.40;87.30;;;;;;5057137;28;20499;-86
2021/05/30 08:23:40;;;;;;;12.10;9.25;;;16.50;87.50;;;;;;5057190;28;20079;-85
2021/05/30 08:26:05;;;;;;;13.27;9.40;;;16.60;87.30;;;;;;5060010;28;20020;-86
2021/05/30 08:28:31;;;;;;;12.38;9.80;;;16.70;86.40;;;;;;5073802;28;20078;-85
2021/05/30 08:30:57;;;;;;;12.45;9.77;;;16.80;86.20;;;;;;5057081;28;20382;-85
2021/05/30 08:33:22;;;;;;;13.68;9.55;;;16.90;86.10;;;;;;5074007;28;20489;-85
2021/05/30 08:35:48;;;;;;;11.80;8.82;;;16.90;85.50;;;;;;5040665;28;20028;-86
2021/05/30 08:38:14;;;;;;;12.45;9.20;;;17.10;86.20;;;;;;5026232;28;20469;-85
2021/05/30 08:40:42;;;;;;;11.13;9.00;;;17.10;86.10;;;;;;5042574;28;20469;-85
2021/05/30 08:43:09;;;;;;;12.15;8.95;;;17.20;85.60;;;;;;5073551;28;20029;-86
2021/05/30 08:45:35;;;;;;;11.13;8.45;;;17.30;85.20;;;;;;5070292;28;20029;-85
2021/05/30 08:48:01;;;;;;;10.70;8.52;;;17.50;85.20;;;;;;5068667;28;20099;-86
2021/05/30 08:50:26;;;;;;;11.85;10.05;;;17.50;84.90;;;;;;5083677;28;20476;-86
2021/05/30 08:52:52;;;;;;;11.50;10.10;;;17.60;82.70;;;;;;5078616;28;20484;-86
2021/05/30 08:55:18;;;;;;;14.02;9.95;;;17.70;84.20;;;;;;5067557;28;20029;-87
2021/05/30 08:57:43;;;;;;;11.63;10.02;;;17.80;84.00;;;;;;5067656;28;20057;-86
2021/05/30 09:00:12;;;;;;;9.73;8.45;;;17.90;84.00;;;;;;5095107;28;20033;-87
2021/05/30 09:02:38;;;;;;;11.45;8.07;;;17.90;83.70;;;;;;5069302;28;20025;-88
2021/05/30 09:05:07;;;;;;;10.30;7.20;;;18.00;83.50;;;;;;5061547;28;20025;-85
2021/05/30 09:07:55;;;;;;;8.98;6.90;;;18.10;83.10;;;;;;5076913;28;20020;-87
2021/05/30 09:10:26;;;;;;;10.13;7.55;;;18.20;83.00;;;;;;5079282;28;20024;-85
2021/05/30 09:13:14;;;;;;;10.57;7.50;;;18.30;82.90;;;;;;5076090;28;20033;-73
2021/05/30 09:16:06;;;;;;;9.63;7.72;;;18.50;82.00;;;;;;5062305;28;20056;-73
2021/05/30 09:18:35;;;;;;;9.95;7.15;;;18.50;81.30;;;;;;5074841;28;20380;-72
2021/05/30 09:21:09;;;;;;;8.55;7.00;;;18.60;81.50;;;;;;5072759;28;20032;-72
2021/05/30 09:23:37;;;;;;;9.07;6.78;;;18.70;81.30;;;;;;5072578;28;20547;-72
2021/05/30 09:26:24;;;;;;;9.15;7.50;;;18.80;79.50;;;;;;5070954;28;20024;-74
2021/05/30 09:29:11;;;;;;;9.27;6.70;;;18.80;79.10;;;;;;5071784;28;20532;-72
2021/05/30 09:31:59;;;;;;;11.18;7.70;;;18.90;78.80;;;;;;5072459;28;20028;-72
2021/05/30 09:34:28;;;;;;;9.45;6.22;;;19.00;79.20;;;;;;5072329;28;20009;-72
2021/05/30 09:36:55;;;;;;;9.25;7.22;;;19.10;79.30;;;;;;5073959;28;20025;-72
2021/05/30 09:39:43;;;;;;;8.85;7.20;;;19.20;79.60;;;;;;5072309;28;20017;-72
2021/05/30 09:42:22;;;;;;;10.65;6.72;;;19.30;78.70;;;;;;5072485;28;20055;-72
2021/05/30 09:44:55;;;;;;;6.95;6.10;;;19.40;79.00;;;;;;5071568;28;20078;-72
2021/05/30 09:47:41;;;;;;;8.70;6.55;;;19.50;78.80;;;;;;5053829;28;20413;-72
2021/05/30 09:50:10;;;;;;;8.13;5.78;;;19.60;78.40;;;;;;5072272;28;20037;-72
2021/05/30 09:52:52;;;;;;;8.27;7.03;;;19.70;78.40;;;;;;5071872;28;20107;-72
2021/05/30 09:55:29;;;;;;;9.13;7.10;;;19.80;75.60;;;;;;5072263;28;20090;-72
2021/05/30 09:58:19;;;;;;;11.23;7.97;;;19.80;73.80;;;;;;5071351;28;20032;-72
2021/05/30 10:00:58;;;;;;;9.35;7.45;;;19.80;73.80;;;;;;5068153;28;20500;-71
2021/05/30 10:03:25;;;;;;;9.00;6.45;;;19.80;73.10;;;;;;5069751;28;20025;-71
2021/05/30 10:05:51;;;;;;;8.77;6.78;;;19.80;73.70;;;;;;5069914;28;20021;-72
2021/05/30 10:08:18;;;;;;;7.22;5.30;;;19.90;73.90;;;;;;5052793;28;20043;-80
2021/05/30 10:10:59;;;;;;;7.38;5.60;;;20.00;74.00;;;;;;5077702;28;20025;-82
2021/05/30 10:13:25;;;;;;;8.27;5.68;;;20.10;74.00;;;;;;5071972;28;20127;-79
2021/05/30 10:15:51;;;;;;;6.57;4.75;;;20.10;74.10;;;;;;5009190;28;20432;-80
2021/05/30 10:18:29;;;;;;;6.78;4.88;;;20.20;74.40;;;;;;5061629;28;20037;-80
2021/05/30 10:20:56;;;;;;;6.10;4.40;;;20.30;75.10;;;;;;5055927;28;20028;-79
2021/05/30 10:23:22;;;;;;;6.30;4.88;;;20.40;75.00;;;;;;5071559;28;20037;-80
2021/05/30 10:25:49;;;;;;;6.40;4.50;;;20.50;74.90;;;;;;5071200;28;20028;-87
2021/05/30 10:28:19;;;;;;;6.82;4.70;;;20.50;74.80;;;;;;5053784;28;20034;-84
2021/05/30 10:30:47;;;;;;;7.22;4.30;;;20.60;74.40;;;;;;5069704;28;20071;-84
2021/05/30 10:33:24;;;;;;;7.13;4.38;;;20.70;74.20;;;;;;5072196;28;20108;-84
2021/05/30 10:35:55;;;;;;;5.07;3.80;;;20.80;74.00;;;;;;5065728;28;20455;-86
2021/05/30 10:38:44;;;;;;;6.50;4.20;;;20.90;74.40;;;;;;5054076;28;20032;-84
2021/05/30 10:41:14;;;;;;;6.35;4.22;;;21.00;74.70;;;;;;5067682;28;20037;-85
2021/05/30 10:43:40;;;;;;;6.80;4.22;;;21.00;73.50;;;;;;5065380;28;20032;-84
2021/05/30 10:46:06;;;;;;;6.10;3.30;;;21.10;70.90;;;;;;5085503;28;20028;-85
2021/05/30 10:48:33;;;;;;;4.70;3.22;;;21.10;70.70;;;;;;5041217;28;20039;-84
2021/05/30 10:53:43;;;;;;;5.22;3.20;;;21.20;69.70;;;;;;5069821;28;20033;-84
2021/05/30 10:56:19;;;;;;;5.22;3.72;;;21.30;69.50;;;;;;5085788;28;20060;-85
2021/05/30 10:59:11;;;;;;;6.05;3.67;;;21.30;67.40;;;;;;5071290;28;20020;-84
2021/05/30 11:01:40;;;;;;;4.65;3.13;;;21.40;67.70;;;;;;5068952;28;20021;-84
2021/05/30 11:04:28;;;;;;;4.13;2.88;;;21.30;68.20;;;;;;5070193;28;20032;-84
2021/05/30 11:07:02;;;;;;;4.68;2.40;;;21.50;68.30;;;;;;5039324;28;20063;-84
2021/05/30 11:09:50;;;;;;;3.55;2.70;;;21.50;66.90;;;;;;5063752;28;20025;-85
2021/05/30 11:12:21;;;;;;;3.72;3.08;;;21.60;65.40;;;;;;5069704;28;20051;-84
2021/05/30 11:15:16;;;;;;;5.38;3.30;;;21.60;64.60;;;;;;5051716;28;20404;-83
2021/05/30 11:17:44;;;;;;;3.95;2.97;;;21.60;64.80;;;;;;5059078;28;20043;-83
2021/05/30 11:20:15;;;;;;;2.80;2.25;;;21.70;65.80;;;;;;5042067;28;20075;-83
2021/05/30 11:22:48;;;;;;;4.35;2.60;;;21.70;66.30;;;;;;5040275;28;20055;-84
2021/05/30 11:25:41;;;;;;;4.40;2.40;;;21.80;66.50;;;;;;5068822;28;20086;-83
2021/05/30 11:28:11;;;;;;;3.05;2.10;;;21.90;66.00;;;;;;5064680;28;20025;-83
2021/05/30 11:30:46;;;;;;;3.13;1.90;;;22.00;65.30;;;;;;5072976;28;20387;-83
2021/05/30 11:33:21;;;;;;;3.28;2.33;;;22.00;65.10;;;;;;5071983;28;20039;-83
2021/05/30 11:35:50;;;;;;;4.18;2.60;;;22.10;64.60;;;;;;5073153;28;21452;-85
2021/05/30 11:38:16;;;;;;;4.13;2.60;;;22.20;64.90;;;;;;5073702;28;20030;-84
2021/05/30 11:40:41;;;;;;;3.30;2.40;;;22.20;63.90;;;;;;5054876;28;20072;-85
2021/05/30 11:43:17;;;;;;;4.60;2.72;;;22.20;64.20;;;;;;5057117;28;20491;-86
2021/05/30 11:45:45;;;;;;;5.00;3.00;;;22.30;64.00;;;;;;5078335;28;20055;-86
2021/05/30 11:48:17;;;;;;;4.57;2.90;;;22.40;63.20;;;;;;5060998;28;20059;-85
2021/05/30 11:50:51;;;;;;;3.45;2.63;;;22.40;62.30;;;;;;5073294;28;20032;-86
2021/05/30 11:53:28;;;;;;;3.58;2.80;;;22.50;62.80;;;;;;5073325;28;20112;-83
2021/05/30 11:55:55;;;;;;;5.65;3.08;;;22.60;60.80;;;;;;5059963;28;20026;-83
2021/05/30 11:58:21;;;;;;;3.97;2.58;;;22.60;62.30;;;;;;5044679;28;20112;-84
2021/05/30 12:00:52;;;;;;;3.78;2.80;;;22.70;63.10;;;;;;5068089;28;20116;-84
2021/05/30 12:03:18;;;;;;;4.20;3.00;;;22.70;64.00;;;;;;5050907;28;20033;-84
2021/05/30 12:05:44;;;;;;;4.50;2.72;;;22.80;63.90;;;;;;5057587;28;20661;-83
2021/05/30 12:08:18;;;;;;;3.40;2.55;;;22.90;64.20;;;;;;5068719;28;20115;-85
2021/05/30 12:10:49;;;;;;;7.65;2.88;;;23.00;64.70;;;;;;5073492;28;20035;-87
2021/05/30 12:13:41;;;;;;;;;;;23.10;65.10;;;;;;5073391;28;20029;-85
2021/05/30 12:16:18;;;;;;;3.65;2.50;;;23.10;62.40;;;;;;5059869;28;19916;-83
2021/05/30 12:18:55;;;;;;;3.42;2.22;;;23.10;63.80;;;;;;5066456;28;20021;-81
2021/05/30 12:21:22;;;;;;;3.35;2.33;;;23.20;63.90;;;;;;5066657;28;20024;-82
2021/05/30 12:23:48;;;;;;;4.07;2.65;;;23.20;63.50;;;;;;5073398;28;20021;-81
2021/05/30 12:26:14;;;;;;;3.30;2.13;;;23.30;62.80;;;;;;5072387;28;20020;-83
2021/05/30 12:28:41;;;;;;;4.97;2.47;;;23.30;62.80;;;;;;5061439;28;20477;-80
2021/05/30 12:31:11;;;;;;;2.95;2.30;;;23.40;63.30;;;;;;5056522;28;20028;-81
2021/05/30 12:33:56;;;;;;;3.28;2.45;;;23.50;63.00;;;;;;5074041;28;20033;-80
2021/05/30 12:36:35;;;;;;;4.03;2.40;;;23.60;62.70;;;;;;5075016;28;20023;-81
2021/05/30 12:39:05;;;;;;;3.95;2.38;;;23.60;62.70;;;;;;5078221;28;20039;-83
2021/05/30 12:41:32;;;;;;;;;;;23.60;62.10;;;;;;5076519;28;20032;-80
2021/05/30 12:44:12;;;;;;;2.65;1.85;;;23.70;61.70;;;;;;5067071;28;19912;-88
2021/05/30 12:46:39;;;;;;;5.47;2.45;;;23.70;62.00;;;;;;5062931;28;20091;-81
2021/05/30 12:49:15;;;;;;;3.25;2.25;;;23.80;61.30;;;;;;5069270;28;20037;-80